Data for 02/10/2017

Time Sea-Level Adjusted Pressure Absolute Pressure Temperature Relative Humidity Dew Point   
(mb) (inHg) (mb) (inHg) (C) (F) (%) (C) (F)
00:05 1006 29.71 835 24.66 9.3 48.8 48 -1 30.2
00:10 1006 29.71 835 24.66 9.3 48.8 48 -1.1 30
00:15 1006 29.71 835 24.66 9.5 49.1 48 -0.9 30.5
00:20 1006 29.71 835 24.66 9.4 48.9 48 -1.1 30.1
00:25 1006 29.71 835 24.66 9.5 49.1 48 -1.1 30.1
00:30 1006 29.71 835 24.66 9.7 49.4 47 -1 30.3
00:35 1006 29.71 835 24.66 9.3 48.8 48 -1 30.2
00:40 1006 29.71 835 24.66 9.1 48.5 49 -0.9 30.3
00:45 1006 29.71 835 24.66 9 48.3 51 -0.5 31
00:50 1006 29.71 835 24.66 8.9 47.9 53 -0.3 31.5
00:55 1006 29.71 836 24.69 8.7 47.6 54 -0 32
01:00 1006 29.71 836 24.69 8.4 47 56 0 32.1
01:05 1006 29.71 836 24.69 8.1 46.6 57 0.1 32.1
01:10 1006 29.71 836 24.69 7.9 46.2 57 -0.1 31.9
01:15 1006 29.71 836 24.69 7.8 46.1 57 -0.2 31.7
01:20 1006 29.71 836 24.69 7.9 46.1 57 -0.2 31.7
01:25 1006 29.71 836 24.69 7.8 46.1 57 -0.1 31.8
01:30 1006 29.71 836 24.69 7.7 45.8 58 -0.1 31.8
01:35 1006 29.71 836 24.69 7.5 45.5 61 0.4 32.8
01:40 1006 29.71 836 24.69 6.7 44 65 0.7 33.2
01:45 1006 29.71 836 24.69 6 42.9 67 0.5 32.9
01:50 1007 29.74 836 24.69 5.7 42.3 69 0.5 32.9
01:55 1007 29.74 836 24.69 5.7 42.2 70 0.6 33
02:00 1007 29.74 836 24.69 5.6 42 70 0.6 33.1
02:05 1007 29.74 836 24.69 5.4 41.7 73 0.9 33.7
02:10 1007 29.74 836 24.69 5.2 41.4 74 1 33.9
02:15 1007 29.74 836 24.69 5.1 41.2 75 1 33.8
02:20 1007 29.74 836 24.69 5.2 41.4 74 0.9 33.6
02:25 1007 29.74 836 24.69 5.4 41.7 71 0.7 33.2
02:30 1007 29.74 836 24.69 5.5 41.9 72 0.9 33.6
02:35 1007 29.74 836 24.69 5.6 42.1 69 0.3 32.5
02:40 1007 29.74 836 24.69 6.1 42.9 66 0.2 32.4
02:45 1007 29.74 836 24.69 6.2 43.1 67 0.5 32.8
02:50 1007 29.74 836 24.69 5.9 42.6 68 0.5 33
02:55 1007 29.74 836 24.69 5.5 41.8 70 0.5 32.9
03:00 1007 29.74 836 24.69 5.4 41.7 69 0.2 32.4
03:05 1007 29.74 836 24.69 5.9 42.6 62 -0.9 30.4
03:10 1007 29.74 836 24.69 6.7 44.1 60 -0.5 31.2
03:15 1007 29.74 836 24.69 6.8 44.3 59 -0.6 31
03:20 1007 29.74 836 24.69 7.2 44.9 57 -0.8 30.5
03:25 1007 29.74 836 24.69 7.7 45.8 55 -0.9 30.5
03:30 1007 29.74 836 24.69 7.9 46.2 54 -0.7 30.7
03:35 1007 29.74 836 24.69 7.9 46.2 54 -0.8 30.5
03:40 1007 29.74 836 24.69 7.8 46 55 -0.8 30.6
03:45 1007 29.74 836 24.69 7.8 46 55 -0.8 30.6
03:50 1007 29.74 836 24.69 7.9 46.3 55 -0.6 31
03:55 1007 29.74 836 24.69 7.8 46 56 -0.5 31.1
04:00 1007 29.74 836 24.69 7.7 45.8 56 -0.6 30.9
04:05 1007 29.74 836 24.69 7.6 45.7 56 -0.7 30.8
04:10 1007 29.74 836 24.69 7.5 45.5 57 -0.5 31
04:15 1007 29.74 836 24.69 7.2 44.9 58 -0.5 31.1
04:20 1007 29.74 836 24.69 7 44.6 58 -0.7 30.7
04:25 1007 29.74 836 24.69 7 44.5 58 -0.8 30.6
04:30 1007 29.74 836 24.69 6.9 44.4 58 -0.9 30.5
04:35 1007 29.74 836 24.69 6.8 44.3 58 -0.8 30.6
04:40 1007 29.74 836 24.69 6.7 44.1 59 -0.8 30.6
04:45 1007 29.74 836 24.69 6.6 43.9 58 -0.9 30.3
04:50 1007 29.74 836 24.69 6.7 44.1 57 -1.2 29.9
04:55 1007 29.74 836 24.69 6.9 44.5 56 -1.1 30
05:00 1007 29.74 837 24.72 6.8 44.3 60 -0.4 31.4
05:05 1007 29.74 837 24.72 6.2 43.1 65 0 32
05:10 1007 29.74 837 24.72 5.8 42.5 66 -0.1 31.9
05:15 1008 29.77 837 24.72 5.7 42.2 67 -0 31.9
05:20 1008 29.77 837 24.72 5.7 42.2 68 0.3 32.5
05:25 1008 29.77 837 24.72 5.5 41.9 68 0.2 32.4
05:30 1008 29.77 837 24.72 5.3 41.5 70 0.2 32.4
05:35 1008 29.77 837 24.72 5.1 41.1 71 0.2 32.4
05:40 1008 29.77 837 24.72 4.9 40.9 71 0.2 32.3
05:45 1008 29.77 837 24.72 4.8 40.6 72 0.3 32.5
05:50 1008 29.77 837 24.72 4.7 40.5 72 0.2 32.3
05:55 1008 29.77 837 24.72 4.6 40.3 73 0.2 32.3
06:00 1008 29.77 838 24.75 4.4 39.9 74 0.2 32.4
06:05 1009 29.8 838 24.75 4.3 39.7 75 0.2 32.4
06:10 1009 29.8 838 24.75 4.1 39.3 77 0.4 32.7
06:15 1009 29.8 838 24.75 3.8 38.9 80 0.7 33.3
06:20 1009 29.8 838 24.75 3.5 38.3 84 1 33.9
06:25 1009 29.8 838 24.75 3.3 37.9 86 1.1 34
06:30 1009 29.8 838 24.75 3.1 37.6 87 1.1 34
06:35 1009 29.8 838 24.75 3 37.4 87 1.1 34
06:40 1009 29.8 838 24.75 2.9 37.3 88 1.1 34
06:45 1009 29.8 838 24.75 3 37.4 88 1.1 34.1
06:50 1009 29.8 838 24.75 2.9 37.2 88 1.1 34
06:55 1009 29.8 838 24.75 2.7 36.8 89 1.1 34
07:00 1009 29.8 838 24.75 2.6 36.7 89 1 33.8
07:05 1009 29.8 838 24.75 2.5 36.4 89 0.8 33.5
07:10 1009 29.8 838 24.75 2.4 36.4 89 0.8 33.4
07:15 1009 29.8 838 24.75 2.4 36.4 89 0.8 33.4
07:20 1009 29.8 838 24.75 2.4 36.4 87 0.5 32.9
07:25 1009 29.8 838 24.75 2.3 36.1 88 0.5 32.9
07:30 1009 29.8 838 24.75 2.3 36.2 87 0.4 32.7
07:35 1009 29.8 838 24.75 2.6 36.7 86 0.5 32.9
07:40 1009 29.8 838 24.75 3.1 37.5 84 0.6 33
07:45 1009 29.8 838 24.75 3.3 37.9 79 0.1 32.1
07:50 1009 29.8 838 24.75 3.8 38.9 76 0 32
07:55 1009 29.8 838 24.75 4 39.1 76 0.2 32.3
08:00 1009 29.8 838 24.75 4.1 39.4 74 -0.2 31.6
08:05 1009 29.8 838 24.75 4.2 39.5 75 0.2 32.3
08:10 1009 29.8 838 24.75 4.1 39.4 73 -0.3 31.4
08:15 1009 29.8 838 24.75 4.2 39.6 72 -0.4 31.3
08:20 1009 29.8 838 24.75 4.2 39.5 72 -0.4 31.2
08:25 1009 29.8 838 24.75 4.2 39.6 72 -0.4 31.3
08:30 1009 29.8 838 24.75 4.1 39.4 74 -0.2 31.6
08:35 1009 29.8 838 24.75 3.9 39.1 76 0.1 32.1
08:40 1009 29.8 838 24.75 3.9 39 77 0.3 32.5
08:45 1009 29.8 838 24.75 3.8 38.8 77 0 32.1
08:50 1009 29.8 838 24.75 3.9 39 76 -0 32
08:55 1009 29.8 838 24.75 4.1 39.3 72 -0.5 31
09:00 1009 29.8 838 24.75 4.5 40.1 68 -0.8 30.6
09:05 1009 29.8 839 24.78 4.8 40.6 67 -0.9 30.3
09:10 1009 29.8 839 24.78 4.9 40.8 66 -1 30.2
09:15 1009 29.8 838 24.75 4.9 40.8 66 -1 30.3
09:20 1009 29.8 838 24.75 4.9 40.8 65 -1.2 29.9
09:25 1009 29.8 838 24.75 4.9 40.9 64 -1.2 29.8
09:30 1009 29.8 838 24.75 5 41 63 -1.5 29.3
09:35 1009 29.8 839 24.78 5.1 41.3 62 -1.6 29.1
09:40 1009 29.8 839 24.78 5.3 41.5 60 -1.8 28.8
09:45 1009 29.8 838 24.75 5.3 41.6 60 -1.8 28.7
09:50 1009 29.8 839 24.78 5.4 41.8 58 -2.1 28.3
09:55 1009 29.8 839 24.78 5.6 42.1 58 -1.9 28.5
10:00 1010 29.83 839 24.78 5.6 42.1 58 -1.9 28.6
10:05 1009 29.8 839 24.78 5.6 42 58 -2 28.4
10:10 1009 29.8 839 24.78 5.6 42 59 -1.7 28.9
10:15 1009 29.8 839 24.78 5.5 41.8 59 -1.9 28.6
10:20 1009 29.8 839 24.78 5.5 41.8 59 -1.9 28.6
10:25 1010 29.83 839 24.78 5.5 41.8 60 -1.7 28.9
10:30 1010 29.83 839 24.78 5.4 41.8 58 -2.1 28.2
10:35 1010 29.83 839 24.78 5.6 42.1 57 -2.1 28.2
10:40 1010 29.83 839 24.78 5.7 42.3 57 -2.1 28.3
10:45 1010 29.83 839 24.78 5.7 42.3 58 -1.9 28.6
10:50 1010 29.83 839 24.78 6 42.8 58 -1.5 29.2
10:55 1010 29.83 839 24.78 6 42.8 62 -0.8 30.6
11:00 1010 29.83 839 24.78 5.7 42.3 63 -0.7 30.8
11:05 1010 29.83 839 24.78 5.6 42.1 64 -0.7 30.8
11:10 1010 29.83 839 24.78 5.6 42 63 -0.9 30.3
11:15 1010 29.83 839 24.78 5.7 42.2 62 -0.9 30.3
11:20 1010 29.83 839 24.78 5.8 42.4 61 -1.1 30.1
11:25 1010 29.83 839 24.78 5.9 42.6 61 -1 30.2
11:30 1010 29.83 839 24.78 5.9 42.5 62 -0.9 30.4
11:35 1010 29.83 839 24.78 5.8 42.5 62 -0.9 30.4
11:40 1010 29.83 839 24.78 5.8 42.5 62 -1 30.3
11:45 1010 29.83 840 24.81 5.9 42.6 61 -1 30.3
11:50 1010 29.83 840 24.81 5.9 42.7 61 -1 30.2
11:55 1010 29.83 839 24.78 6 42.8 61 -1 30.2
12:00 1010 29.83 839 24.78 6.1 43 60 -0.9 30.3
12:05 1010 29.83 839 24.78 6.2 43.1 60 -0.9 30.4
12:10 1010 29.83 839 24.78 6.3 43.4 60 -0.8 30.5
12:15 1010 29.83 839 24.78 6.5 43.7 59 -0.9 30.4
12:20 1010 29.83 839 24.78 6.4 43.6 60 -0.8 30.6
12:25 1010 29.83 839 24.78 6.4 43.6 60 -0.8 30.6
12:30 1010 29.83 840 24.81 6.4 43.6 60 -0.7 30.7
12:35 1010 29.83 840 24.81 6.4 43.4 60 -0.8 30.6
12:40 1010 29.83 840 24.81 6.3 43.4 61 -0.6 30.9
12:45 1010 29.83 840 24.81 6.3 43.3 61 -0.7 30.8
12:50 1010 29.83 839 24.78 6.3 43.3 61 -0.7 30.8
12:55 1010 29.83 839 24.78 6.3 43.4 61 -0.6 31
13:00 1010 29.83 839 24.78 6.3 43.3 61 -0.7 30.7
13:05 1010 29.83 839 24.78 6.2 43.2 62 -0.4 31.3
13:10 1010 29.83 839 24.78 6 42.8 62 -0.7 30.8
13:15 1010 29.83 839 24.78 6.2 43.2 61 -0.7 30.7
13:20 1010 29.83 839 24.78 6.4 43.5 60 -0.7 30.8
13:25 1010 29.83 839 24.78 6.4 43.6 60 -0.7 30.8
13:30 1010 29.83 839 24.78 6.3 43.3 60 -0.9 30.3
13:35 1010 29.83 839 24.78 6.5 43.6 60 -0.7 30.8
13:40 1010 29.83 840 24.81 6.4 43.6 60 -0.7 30.7
13:45 1010 29.83 839 24.78 6.5 43.6 60 -0.7 30.8
13:50 1010 29.83 840 24.81 6.6 43.8 60 -0.7 30.8
13:55 1010 29.83 839 24.78 6.8 44.2 60 -0.4 31.3
14:00 1010 29.83 839 24.78 6.7 44.1 63 0.3 32.5
14:05 1010 29.83 839 24.78 6.6 43.9 63 0.2 32.3
14:10 1010 29.83 839 24.78 6.7 44.1 63 0.1 32.2
14:15 1010 29.83 839 24.78 6.7 44 64 0.3 32.5
14:20 1010 29.83 839 24.78 6.4 43.6 64 0.2 32.4
14:25 1010 29.83 840 24.81 6.3 43.4 65 0.3 32.5
14:30 1010 29.83 840 24.81 6.3 43.3 66 0.3 32.6
14:35 1010 29.83 840 24.81 6.3 43.4 65 0.2 32.4
14:40 1011 29.85 840 24.81 6.6 43.8 64 0.3 32.5
14:45 1011 29.85 840 24.81 6.6 43.9 64 0.2 32.4
14:50 1011 29.85 840 24.81 6.8 44.2 64 0.5 32.8
14:55 1011 29.85 840 24.81 6.4 43.5 67 0.7 33.3
15:00 1011 29.85 840 24.81 5.3 41.6 71 0.5 32.9
15:05 1011 29.85 840 24.81 5.1 41.2 72 0.5 32.9
15:10 1011 29.85 840 24.81 5.1 41.2 70 0.1 32.2
15:15 1011 29.85 840 24.81 4.9 40.9 72 0.2 32.4
15:20 1011 29.85 840 24.81 5.1 41.2 71 0.2 32.4
15:25 1011 29.85 840 24.81 5 41 71 0.2 32.3
15:30 1011 29.85 840 24.81 5.1 41.1 70 0.1 32.2
15:35 1011 29.85 840 24.81 5.1 41.2 70 0.2 32.4
15:40 1011 29.85 840 24.81 5.2 41.4 69 -0 32
15:45 1011 29.85 840 24.81 5.1 41.1 70 -0 32
15:50 1011 29.85 840 24.81 5 41 68 -0.4 31.3
15:55 1011 29.85 840 24.81 4.9 40.9 67 -0.6 30.9
16:00 1011 29.85 840 24.81 4.9 40.8 68 -0.5 31.1
16:05 1011 29.85 840 24.81 4.8 40.6 68 -0.6 30.8
16:10 1011 29.85 841 24.83 4.7 40.5 68 -0.7 30.8
16:15 1011 29.85 841 24.83 4.5 40.2 69 -0.7 30.7
16:20 1011 29.85 840 24.81 4.4 39.9 69 -0.7 30.7
16:25 1011 29.85 840 24.81 4.3 39.7 70 -0.7 30.7
16:30 1011 29.85 841 24.83 4.2 39.6 70 -0.8 30.6
16:35 1011 29.85 841 24.83 4 39.2 71 -0.8 30.5
16:40 1011 29.85 841 24.83 3.8 38.8 72 -0.9 30.4
16:45 1011 29.85 841 24.83 3.5 38.3 72 -1 30.2
16:50 1011 29.85 841 24.83 3 37.3 76 -0.9 30.4
16:55 1011 29.85 841 24.83 2.6 36.8 76 -1.2 29.9
17:00 1011 29.85 841 24.83 2.5 36.5 76 -1.2 29.8
17:05 1011 29.85 841 24.83 2.5 36.4 77 -1.2 29.8
17:10 1011 29.85 841 24.83 2.5 36.5 76 -1.3 29.6
17:15 1011 29.85 841 24.83 2.5 36.6 76 -1.3 29.6
17:20 1011 29.85 841 24.83 2.6 36.6 75 -1.4 29.5
17:25 1011 29.85 841 24.83 2.7 36.9 74 -1.5 29.2
17:30 1012 29.88 841 24.83 2.9 37.3 73 -1.4 29.5
17:35 1012 29.88 841 24.83 3.1 37.6 72 -1.5 29.3
17:40 1012 29.88 841 24.83 3.1 37.6 73 -1.4 29.5
17:45 1012 29.88 841 24.83 2.8 37 74 -1.5 29.4
17:50 1011 29.85 841 24.83 2.6 36.6 74 -1.5 29.2
17:55 1011 29.85 841 24.83 2.3 36.1 75 -1.6 29.1
18:00 1011 29.85 841 24.83 2.3 36.1 76 -1.6 29.2
18:05 1011 29.85 841 24.83 2.2 36 76 -1.6 29.1
18:10 1011 29.85 841 24.83 2.1 35.8 76 -1.6 29.1
18:15 1012 29.88 841 24.83 2 35.6 76 -1.8 28.8
18:20 1012 29.88 841 24.83 2 35.6 77 -1.6 29.2
18:25 1012 29.88 841 24.83 1.7 35 79 -1.7 29
18:30 1012 29.88 841 24.83 1.6 34.9 78 -1.7 28.9
18:35 1012 29.88 841 24.83 1.7 35.1 78 -1.7 28.9
18:40 1012 29.88 841 24.83 1.6 34.9 79 -1.6 29.1
18:45 1012 29.88 841 24.83 1.5 34.7 80 -1.6 29.1
18:50 1012 29.88 841 24.83 1.6 34.9 78 -1.8 28.7
18:55 1012 29.88 841 24.83 1.8 35.3 77 -1.8 28.8
19:00 1012 29.88 841 24.83 1.9 35.4 76 -1.9 28.6
19:05 1012 29.88 841 24.83 1.9 35.4 77 -1.8 28.8
19:10 1012 29.88 841 24.83 1.6 34.8 78 -1.8 28.7
19:15 1012 29.88 841 24.83 1 33.7 81 -1.9 28.6
19:20 1012 29.88 841 24.83 0.6 33.1 82 -2.1 28.3
19:25 1012 29.88 841 24.83 0.5 33 82 -2.2 28
19:30 1012 29.88 841 24.83 0.6 33.1 78 -2.7 27.1
19:35 1012 29.88 841 24.83 0.4 32.6 77 -3.3 26.1
19:40 1012 29.88 841 24.83 0.7 33.3 73 -3.7 25.4
19:45 1012 29.88 841 24.83 0.6 33 72 -3.9 24.9
19:50 1012 29.88 841 24.83 0.5 32.9 69 -4.6 23.8
19:55 1012 29.88 841 24.83 0.9 33.7 67 -4.6 23.7
20:00 1012 29.88 841 24.83 0.7 33.3 66 -4.9 23.1
20:05 1011 29.85 841 24.83 0.6 33 67 -4.8 23.4
20:10 1011 29.85 841 24.83 0.3 32.5 67 -5.3 22.5
20:15 1011 29.85 841 24.83 0.4 32.7 66 -5.3 22.5
20:20 1011 29.85 841 24.83 0.4 32.8 65 -5.3 22.4
20:25 1011 29.85 841 24.83 0.3 32.6 65 -5.6 22
20:30 1011 29.85 840 24.81 0.4 32.7 63 -5.8 21.6
20:35 1011 29.85 840 24.81 0.4 32.8 61 -6.2 20.8
20:40 1011 29.85 840 24.81 0.5 32.9 61 -6.1 21.1
20:45 1011 29.85 840 24.81 0.5 32.9 61 -6.2 20.8
20:50 1011 29.85 840 24.81 0.4 32.7 62 -6.1 21
20:55 1011 29.85 840 24.81 0.1 32.2 62 -6.4 20.5
21:00 1011 29.85 840 24.81 0.3 32.6 56 -7.5 18.5
21:05 1011 29.85 840 24.81 0.6 33 57 -7 19.3
21:10 1011 29.85 840 24.81 0.4 32.8 57 -7 19.4
21:15 1011 29.85 840 24.81 0.6 33.2 55 -7.4 18.7
21:20 1011 29.85 840 24.81 0.9 33.6 51 -8.3 17.1
21:25 1011 29.85 840 24.81 1.1 34 50 -8.1 17.4
21:30 1011 29.85 841 24.83 1.5 34.7 47 -8.6 16.6
21:35 1011 29.85 841 24.83 1.9 35.4 45 -8.7 16.3
21:40 1011 29.85 841 24.83 2.2 36 43 -9 15.7
21:45 1011 29.85 841 24.83 2.7 36.8 41 -9.4 15.1
21:50 1011 29.85 841 24.83 3 37.4 39 -9.6 14.7
21:55 1011 29.85 841 24.83 3 37.5 39 -9.6 14.7
22:00 1011 29.85 841 24.83 3.1 37.7 37 -10.1 13.8
22:05 1011 29.85 840 24.81 3.1 37.6 37 -10.2 13.6
22:10 1011 29.85 840 24.81 3 37.5 38 -10.1 13.8
22:15 1011 29.85 840 24.81 3 37.5 38 -10 14.1
22:20 1011 29.85 841 24.83 2.9 37.3 39 -9.8 14.4
22:25 1011 29.85 841 24.83 2.8 37.1 38 -10.2 13.6
22:30 1011 29.85 841 24.83 2.8 37.1 36 -10.7 12.8
22:35 1012 29.88 841 24.83 3 37.4 35 -11.1 12
22:40 1012 29.88 841 24.83 3.1 37.6 34 -11.4 11.5
22:45 1012 29.88 841 24.83 3.3 38 33 -11.6 11.2
22:50 1012 29.88 841 24.83 3.4 38.1 32 -11.6 11
22:55 1012 29.88 841 24.83 3.3 38 33 -11.3 11.6
23:00 1012 29.88 841 24.83 3.5 38.2 33 -11.5 11.3
23:05 1011 29.85 841 24.83 3.6 38.5 33 -11.2 11.9
23:10 1012 29.88 841 24.83 3.5 38.2 33 -11.5 11.3
23:15 1012 29.88 841 24.83 3.4 38.1 33 -11.5 11.3
23:20 1012 29.88 841 24.83 3.3 37.9 33 -11.6 11.2
23:25 1012 29.88 841 24.83 3.3 37.9 33 -11.5 11.3
23:30 1011 29.85 841 24.83 3.2 37.7 34 -11.1 12
23:35 1011 29.85 841 24.83 3.1 37.5 34 -11.5 11.3
23:40 1012 29.88 841 24.83 3.1 37.6 33 -11.8 10.8
23:45 1012 29.88 841 24.83 3.3 37.9 33 -11.4 11.5
23:50 1012 29.88 841 24.83 3.2 37.7 34 -11.3 11.6
23:55 1012 29.88 841 24.83 3.1 37.5 35 -11 12.2
24:00 1012 29.88 841 24.83 2.9 37.2 35 -11.2 11.8